sensor_id;sensor_type;location;lat;lon;timestamp;P1;durP1;ratioP1;P2;durP2;ratioP2
50301;SDS011;36550;50.472;19.744;2023-05-15T00:00:09;5.50;;;1.90;;
50301;SDS011;36550;50.472;19.744;2023-05-15T00:03:53;4.00;;;1.60;;
50301;SDS011;36550;50.472;19.744;2023-05-15T00:06:58;4.90;;;1.70;;
50301;SDS011;36550;50.472;19.744;2023-05-15T00:10:22;2.70;;;1.80;;
50301;SDS011;36550;50.472;19.744;2023-05-15T00:14:06;3.00;;;1.80;;
50301;SDS011;36550;50.472;19.744;2023-05-15T00:17:31;4.00;;;1.80;;
50301;SDS011;36550;50.472;19.744;2023-05-15T00:20:42;3.30;;;1.50;;
50301;SDS011;36550;50.472;19.744;2023-05-15T00:24:07;2.40;;;1.50;;
50301;SDS011;36550;50.472;19.744;2023-05-15T00:27:38;3.40;;;2.00;;
50301;SDS011;36550;50.472;19.744;2023-05-15T00:31:23;3.10;;;1.80;;
50301;SDS011;36550;50.472;19.744;2023-05-15T00:35:07;2.30;;;1.60;;
50301;SDS011;36550;50.472;19.744;2023-05-15T00:38:25;3.80;;;1.80;;
50301;SDS011;36550;50.472;19.744;2023-05-15T00:42:08;2.30;;;1.60;;
50301;SDS011;36550;50.472;19.744;2023-05-15T00:45:52;5.50;;;1.90;;
50301;SDS011;36550;50.472;19.744;2023-05-15T00:49:16;2.60;;;1.90;;
50301;SDS011;36550;50.472;19.744;2023-05-15T00:52:03;3.10;;;1.60;;
50301;SDS011;36550;50.472;19.744;2023-05-15T00:54:50;7.10;;;2.10;;
50301;SDS011;36550;50.472;19.744;2023-05-15T00:57:34;3.90;;;1.90;;
50301;SDS011;36550;50.472;19.744;2023-05-15T01:00:19;4.30;;;1.80;;
50301;SDS011;36550;50.472;19.744;2023-05-15T01:03:04;5.30;;;2.20;;
50301;SDS011;36550;50.472;19.744;2023-05-15T01:05:48;2.60;;;1.80;;
50301;SDS011;36550;50.472;19.744;2023-05-15T01:08:36;5.50;;;2.10;;
50301;SDS011;36550;50.472;19.744;2023-05-15T01:11:46;4.40;;;1.70;;
50301;SDS011;36550;50.472;19.744;2023-05-15T01:15:10;4.00;;;2.10;;
50301;SDS011;36550;50.472;19.744;2023-05-15T01:18:38;3.10;;;2.00;;
50301;SDS011;36550;50.472;19.744;2023-05-15T01:30:01;3.30;;;2.20;;
50301;SDS011;36550;50.472;19.744;2023-05-15T01:33:27;2.90;;;2.10;;
50301;SDS011;36550;50.472;19.744;2023-05-15T01:37:09;3.50;;;2.00;;
50301;SDS011;36550;50.472;19.744;2023-05-15T01:41:01;2.90;;;2.20;;
50301;SDS011;36550;50.472;19.744;2023-05-15T01:44:27;4.10;;;2.60;;
50301;SDS011;36550;50.472;19.744;2023-05-15T01:47:51;3.50;;;2.20;;
50301;SDS011;36550;50.472;19.744;2023-05-15T01:51:16;4.20;;;2.20;;
50301;SDS011;36550;50.472;19.744;2023-05-15T01:54:20;3.70;;;2.20;;
50301;SDS011;36550;50.472;19.744;2023-05-15T01:57:39;5.00;;;2.30;;
50301;SDS011;36550;50.472;19.744;2023-05-15T02:01:23;3.90;;;2.30;;
50301;SDS011;36550;50.472;19.744;2023-05-15T02:04:47;4.20;;;2.20;;
50301;SDS011;36550;50.472;19.744;2023-05-15T02:07:33;4.60;;;2.90;;
50301;SDS011;36550;50.472;19.744;2023-05-15T02:11:17;4.60;;;2.40;;
50301;SDS011;36550;50.472;19.744;2023-05-15T02:14:41;5.40;;;2.60;;
50301;SDS011;36550;50.472;19.744;2023-05-15T02:17:40;4.80;;;2.30;;
50301;SDS011;36550;50.472;19.744;2023-05-15T02:20:56;4.20;;;2.60;;
50301;SDS011;36550;50.472;19.744;2023-05-15T02:24:21;4.50;;;2.30;;
50301;SDS011;36550;50.472;19.744;2023-05-15T02:27:16;3.90;;;2.30;;
50301;SDS011;36550;50.472;19.744;2023-05-15T02:30:42;3.20;;;2.50;;
50301;SDS011;36550;50.472;19.744;2023-05-15T02:34:13;5.50;;;2.80;;
50301;SDS011;36550;50.472;19.744;2023-05-15T02:37:41;5.00;;;2.80;;
50301;SDS011;36550;50.472;19.744;2023-05-15T02:40:49;6.90;;;2.80;;
50301;SDS011;36550;50.472;19.744;2023-05-15T02:44:14;6.40;;;3.00;;
50301;SDS011;36550;50.472;19.744;2023-05-15T02:47:39;4.00;;;2.60;;
50301;SDS011;36550;50.472;19.744;2023-05-15T02:51:02;4.10;;;3.00;;
50301;SDS011;36550;50.472;19.744;2023-05-15T02:54:09;6.70;;;2.80;;
50301;SDS011;36550;50.472;19.744;2023-05-15T02:57:40;4.20;;;2.80;;
50301;SDS011;36550;50.472;19.744;2023-05-15T03:00:24;3.70;;;2.60;;
50301;SDS011;36550;50.472;19.744;2023-05-15T03:03:08;5.90;;;2.80;;
50301;SDS011;36550;50.472;19.744;2023-05-15T03:05:52;5.00;;;2.90;;
50301;SDS011;36550;50.472;19.744;2023-05-15T03:09:16;5.60;;;3.00;;
50301;SDS011;36550;50.472;19.744;2023-05-15T03:12:25;3.60;;;2.50;;
50301;SDS011;36550;50.472;19.744;2023-05-15T03:15:49;5.60;;;3.00;;
50301;SDS011;36550;50.472;19.744;2023-05-15T03:19:33;5.00;;;2.80;;
50301;SDS011;36550;50.472;19.744;2023-05-15T03:22:57;5.30;;;2.60;;
50301;SDS011;36550;50.472;19.744;2023-05-15T03:25:41;4.40;;;2.90;;
50301;SDS011;36550;50.472;19.744;2023-05-15T03:28:25;5.50;;;2.90;;
50301;SDS011;36550;50.472;19.744;2023-05-15T03:31:09;6.50;;;2.40;;
50301;SDS011;36550;50.472;19.744;2023-05-15T03:33:53;3.70;;;3.00;;
50301;SDS011;36550;50.472;19.744;2023-05-15T03:37:25;4.40;;;3.40;;
50301;SDS011;36550;50.472;19.744;2023-05-15T03:40:29;6.70;;;3.10;;
50301;SDS011;36550;50.472;19.744;2023-05-15T03:43:54;3.90;;;2.90;;
50301;SDS011;36550;50.472;19.744;2023-05-15T03:47:05;5.50;;;2.70;;
50301;SDS011;36550;50.472;19.744;2023-05-15T03:50:29;3.80;;;2.60;;
50301;SDS011;36550;50.472;19.744;2023-05-15T03:54:13;4.90;;;3.00;;
50301;SDS011;36550;50.472;19.744;2023-05-15T03:57:17;4.70;;;3.30;;
50301;SDS011;36550;50.472;19.744;2023-05-15T04:00:24;3.30;;;2.50;;
50301;SDS011;36550;50.472;19.744;2023-05-15T04:03:42;5.00;;;2.30;;
50301;SDS011;36550;50.472;19.744;2023-05-15T04:06:34;4.70;;;2.50;;
50301;SDS011;36550;50.472;19.744;2023-05-15T04:10:18;3.70;;;2.60;;
50301;SDS011;36550;50.472;19.744;2023-05-15T04:13:22;4.00;;;2.50;;
50301;SDS011;36550;50.472;19.744;2023-05-15T04:16:33;5.00;;;2.50;;
50301;SDS011;36550;50.472;19.744;2023-05-15T04:19:57;2.70;;;2.30;;
50301;SDS011;36550;50.472;19.744;2023-05-15T04:23:44;5.30;;;2.40;;
50301;SDS011;36550;50.472;19.744;2023-05-15T04:26:37;3.90;;;2.60;;
50301;SDS011;36550;50.472;19.744;2023-05-15T04:29:48;4.30;;;2.60;;
50301;SDS011;36550;50.472;19.744;2023-05-15T04:32:55;4.50;;;2.90;;
50301;SDS011;36550;50.472;19.744;2023-05-15T04:36:28;5.30;;;2.40;;
50301;SDS011;36550;50.472;19.744;2023-05-15T04:39:52;4.90;;;3.00;;
50301;SDS011;36550;50.472;19.744;2023-05-15T04:43:36;5.50;;;2.40;;
50301;SDS011;36550;50.472;19.744;2023-05-15T04:47:00;3.40;;;2.30;;
50301;SDS011;36550;50.472;19.744;2023-05-15T04:50:24;4.90;;;2.70;;
50301;SDS011;36550;50.472;19.744;2023-05-15T04:53:48;4.20;;;2.70;;
50301;SDS011;36550;50.472;19.744;2023-05-15T04:57:26;4.40;;;2.70;;
50301;SDS011;36550;50.472;19.744;2023-05-15T05:00:32;5.00;;;2.70;;
50301;SDS011;36550;50.472;19.744;2023-05-15T05:03:17;4.20;;;2.70;;
50301;SDS011;36550;50.472;19.744;2023-05-15T05:06:21;3.80;;;2.40;;
50301;SDS011;36550;50.472;19.744;2023-05-15T05:09:30;3.20;;;2.50;;
50301;SDS011;36550;50.472;19.744;2023-05-15T05:12:54;3.50;;;2.50;;
50301;SDS011;36550;50.472;19.744;2023-05-15T05:15:38;5.70;;;2.40;;
50301;SDS011;36550;50.472;19.744;2023-05-15T05:19:02;3.80;;;2.50;;
50301;SDS011;36550;50.472;19.744;2023-05-15T05:22:40;3.80;;;3.00;;
50301;SDS011;36550;50.472;19.744;2023-05-15T05:25:44;5.40;;;2.80;;
50301;SDS011;36550;50.472;19.744;2023-05-15T05:29:12;6.90;;;2.50;;
50301;SDS011;36550;50.472;19.744;2023-05-15T05:32:36;5.00;;;2.40;;
50301;SDS011;36550;50.472;19.744;2023-05-15T05:36:00;7.20;;;2.60;;
50301;SDS011;36550;50.472;19.744;2023-05-15T05:38:45;4.00;;;2.40;;
50301;SDS011;36550;50.472;19.744;2023-05-15T05:42:29;5.60;;;2.90;;
50301;SDS011;36550;50.472;19.744;2023-05-15T05:45:34;3.50;;;2.50;;
50301;SDS011;36550;50.472;19.744;2023-05-15T05:49:05;4.70;;;2.90;;
50301;SDS011;36550;50.472;19.744;2023-05-15T05:52:30;4.40;;;2.60;;
50301;SDS011;36550;50.472;19.744;2023-05-15T05:55:54;5.60;;;2.80;;
50301;SDS011;36550;50.472;19.744;2023-05-15T05:58:57;6.00;;;2.50;;
50301;SDS011;36550;50.472;19.744;2023-05-15T06:01:58;5.10;;;2.70;;
50301;SDS011;36550;50.472;19.744;2023-05-15T06:05:42;4.70;;;3.30;;
50301;SDS011;36550;50.472;19.744;2023-05-15T06:09:07;5.50;;;2.70;;
50301;SDS011;36550;50.472;19.744;2023-05-15T06:12:51;4.70;;;3.40;;
50301;SDS011;36550;50.472;19.744;2023-05-15T06:15:57;5.80;;;3.00;;
50301;SDS011;36550;50.472;19.744;2023-05-15T06:19:22;7.50;;;2.50;;
50301;SDS011;36550;50.472;19.744;2023-05-15T06:22:51;5.70;;;3.10;;
50301;SDS011;36550;50.472;19.744;2023-05-15T06:26:16;3.90;;;2.60;;
50301;SDS011;36550;50.472;19.744;2023-05-15T06:29:22;8.20;;;3.00;;
50301;SDS011;36550;50.472;19.744;2023-05-15T06:32:40;5.70;;;3.00;;
50301;SDS011;36550;50.472;19.744;2023-05-15T06:35:45;4.80;;;3.20;;
50301;SDS011;36550;50.472;19.744;2023-05-15T06:39:08;4.50;;;2.70;;
50301;SDS011;36550;50.472;19.744;2023-05-15T06:42:34;4.50;;;2.70;;
50301;SDS011;36550;50.472;19.744;2023-05-15T06:45:38;6.10;;;3.30;;
50301;SDS011;36550;50.472;19.744;2023-05-15T06:48:42;5.10;;;3.00;;
50301;SDS011;36550;50.472;19.744;2023-05-15T06:52:26;3.70;;;2.90;;
50301;SDS011;36550;50.472;19.744;2023-05-15T06:55:14;4.10;;;2.80;;
50301;SDS011;36550;50.472;19.744;2023-05-15T06:58:25;5.30;;;2.70;;
50301;SDS011;36550;50.472;19.744;2023-05-15T07:02:04;4.10;;;2.60;;
50301;SDS011;36550;50.472;19.744;2023-05-15T07:05:31;3.80;;;2.40;;
50301;SDS011;36550;50.472;19.744;2023-05-15T07:08:35;3.20;;;2.50;;
50301;SDS011;36550;50.472;19.744;2023-05-15T07:11:53;3.50;;;2.60;;
50301;SDS011;36550;50.472;19.744;2023-05-15T07:14:58;3.70;;;2.60;;
50301;SDS011;36550;50.472;19.744;2023-05-15T07:18:17;4.60;;;2.30;;
50301;SDS011;36550;50.472;19.744;2023-05-15T07:21:41;6.20;;;2.50;;
50301;SDS011;36550;50.472;19.744;2023-05-15T07:24:53;2.90;;;2.40;;
50301;SDS011;36550;50.472;19.744;2023-05-15T07:27:52;3.80;;;2.40;;
50301;SDS011;36550;50.472;19.744;2023-05-15T07:31:16;2.40;;;2.10;;
50301;SDS011;36550;50.472;19.744;2023-05-15T07:34:26;4.40;;;2.50;;
50301;SDS011;36550;50.472;19.744;2023-05-15T07:37:30;5.80;;;2.60;;
50301;SDS011;36550;50.472;19.744;2023-05-15T07:40:54;4.70;;;2.30;;
50301;SDS011;36550;50.472;19.744;2023-05-15T07:44:13;2.90;;;2.30;;
50301;SDS011;36550;50.472;19.744;2023-05-15T07:46:59;3.70;;;2.70;;
50301;SDS011;36550;50.472;19.744;2023-05-15T07:50:23;5.10;;;2.40;;
50301;SDS011;36550;50.472;19.744;2023-05-15T07:53:35;3.60;;;2.10;;
50301;SDS011;36550;50.472;19.744;2023-05-15T07:56:21;5.50;;;2.50;;
50301;SDS011;36550;50.472;19.744;2023-05-15T07:59:16;3.60;;;2.90;;
50301;SDS011;36550;50.472;19.744;2023-05-15T08:02:15;3.30;;;2.10;;
50301;SDS011;36550;50.472;19.744;2023-05-15T08:05:39;2.70;;;2.10;;
50301;SDS011;36550;50.472;19.744;2023-05-15T08:08:25;2.80;;;2.40;;
50301;SDS011;36550;50.472;19.744;2023-05-15T08:11:32;3.70;;;2.70;;
50301;SDS011;36550;50.472;19.744;2023-05-15T08:15:21;3.20;;;2.20;;
50301;SDS011;36550;50.472;19.744;2023-05-15T08:18:11;3.20;;;2.40;;
50301;SDS011;36550;50.472;19.744;2023-05-15T08:21:16;2.70;;;2.10;;
50301;SDS011;36550;50.472;19.744;2023-05-15T08:24:21;5.20;;;2.40;;
50301;SDS011;36550;50.472;19.744;2023-05-15T08:27:24;5.60;;;2.10;;
50301;SDS011;36550;50.472;19.744;2023-05-15T08:30:31;4.50;;;2.40;;
50301;SDS011;36550;50.472;19.744;2023-05-15T08:33:36;3.30;;;2.10;;
50301;SDS011;36550;50.472;19.744;2023-05-15T08:36:41;4.30;;;2.20;;
50301;SDS011;36550;50.472;19.744;2023-05-15T08:39:51;2.70;;;2.10;;
50301;SDS011;36550;50.472;19.744;2023-05-15T08:43:16;4.40;;;2.10;;
50301;SDS011;36550;50.472;19.744;2023-05-15T08:46:41;3.60;;;2.00;;
50301;SDS011;36550;50.472;19.744;2023-05-15T08:49:56;2.60;;;2.00;;
50301;SDS011;36550;50.472;19.744;2023-05-15T08:52:48;2.20;;;1.70;;
50301;SDS011;36550;50.472;19.744;2023-05-15T08:56:11;6.10;;;2.00;;
50301;SDS011;36550;50.472;19.744;2023-05-15T08:59:16;3.20;;;2.00;;
50301;SDS011;36550;50.472;19.744;2023-05-15T09:02:03;4.20;;;2.30;;
50301;SDS011;36550;50.472;19.744;2023-05-15T09:04:51;2.60;;;1.80;;
50301;SDS011;36550;50.472;19.744;2023-05-15T09:07:37;3.40;;;1.80;;
50301;SDS011;36550;50.472;19.744;2023-05-15T09:10:44;2.60;;;1.80;;
50301;SDS011;36550;50.472;19.744;2023-05-15T09:13:34;3.80;;;1.80;;
50301;SDS011;36550;50.472;19.744;2023-05-15T09:16:39;4.00;;;1.90;;
50301;SDS011;36550;50.472;19.744;2023-05-15T09:19:38;2.30;;;1.90;;
50301;SDS011;36550;50.472;19.744;2023-05-15T09:22:23;1.90;;;1.60;;
50301;SDS011;36550;50.472;19.744;2023-05-15T09:25:41;6.40;;;1.60;;
50301;SDS011;36550;50.472;19.744;2023-05-15T09:28:47;4.90;;;1.80;;
50301;SDS011;36550;50.472;19.744;2023-05-15T09:32:12;2.90;;;1.60;;
50301;SDS011;36550;50.472;19.744;2023-05-15T09:35:36;2.70;;;1.50;;
50301;SDS011;36550;50.472;19.744;2023-05-15T09:38:43;3.30;;;1.30;;
50301;SDS011;36550;50.472;19.744;2023-05-15T09:41:49;1.70;;;1.20;;
50301;SDS011;36550;50.472;19.744;2023-05-15T09:44:52;2.40;;;1.10;;
50301;SDS011;36550;50.472;19.744;2023-05-15T09:47:38;1.90;;;1.30;;
50301;SDS011;36550;50.472;19.744;2023-05-15T09:50:24;1.80;;;1.20;;
50301;SDS011;36550;50.472;19.744;2023-05-15T09:53:29;1.60;;;1.00;;
50301;SDS011;36550;50.472;19.744;2023-05-15T09:56:54;1.50;;;1.10;;
50301;SDS011;36550;50.472;19.744;2023-05-15T10:00:13;2.20;;;0.90;;
50301;SDS011;36550;50.472;19.744;2023-05-15T10:03:39;2.00;;;1.20;;
50301;SDS011;36550;50.472;19.744;2023-05-15T10:07:01;4.00;;;1.00;;
50301;SDS011;36550;50.472;19.744;2023-05-15T10:09:46;0.80;;;0.80;;
50301;SDS011;36550;50.472;19.744;2023-05-15T10:12:30;3.40;;;0.90;;
50301;SDS011;36550;50.472;19.744;2023-05-15T10:15:54;1.80;;;0.80;;
50301;SDS011;36550;50.472;19.744;2023-05-15T10:19:19;2.40;;;0.90;;
50301;SDS011;36550;50.472;19.744;2023-05-15T10:22:58;3.20;;;0.90;;
50301;SDS011;36550;50.472;19.744;2023-05-15T10:26:23;4.80;;;0.90;;
50301;SDS011;36550;50.472;19.744;2023-05-15T10:30:00;4.60;;;1.10;;
50301;SDS011;36550;50.472;19.744;2023-05-15T10:36:10;1.70;;;0.90;;
50301;SDS011;36550;50.472;19.744;2023-05-15T10:39:14;1.10;;;0.70;;
50301;SDS011;36550;50.472;19.744;2023-05-15T10:41:59;1.10;;;0.90;;
50301;SDS011;36550;50.472;19.744;2023-05-15T10:45:17;1.10;;;1.00;;
50301;SDS011;36550;50.472;19.744;2023-05-15T10:48:06;2.30;;;0.90;;
50301;SDS011;36550;50.472;19.744;2023-05-15T10:51:23;2.10;;;1.10;;
50301;SDS011;36550;50.472;19.744;2023-05-15T10:54:28;1.10;;;0.90;;
50301;SDS011;36550;50.472;19.744;2023-05-15T10:57:14;2.10;;;1.10;;
50301;SDS011;36550;50.472;19.744;2023-05-15T11:03:13;3.10;;;1.20;;
50301;SDS011;36550;50.472;19.744;2023-05-15T11:07:10;3.60;;;1.10;;
50301;SDS011;36550;50.472;19.744;2023-05-15T11:14:05;2.30;;;0.90;;
50301;SDS011;36550;50.472;19.744;2023-05-15T11:17:09;1.50;;;0.90;;
50301;SDS011;36550;50.472;19.744;2023-05-15T11:21:20;2.90;;;0.90;;
50301;SDS011;36550;50.472;19.744;2023-05-15T11:23:41;1.80;;;0.90;;
50301;SDS011;36550;50.472;19.744;2023-05-15T11:26:45;1.90;;;1.00;;
50301;SDS011;36550;50.472;19.744;2023-05-15T11:33:15;1.90;;;1.00;;
50301;SDS011;36550;50.472;19.744;2023-05-15T11:36:00;1.90;;;0.90;;
50301;SDS011;36550;50.472;19.744;2023-05-15T11:39:10;2.40;;;1.20;;
50301;SDS011;36550;50.472;19.744;2023-05-15T11:41:54;1.50;;;0.90;;
50301;SDS011;36550;50.472;19.744;2023-05-15T11:44:39;4.80;;;1.00;;
50301;SDS011;36550;50.472;19.744;2023-05-15T11:47:23;2.20;;;0.90;;
50301;SDS011;36550;50.472;19.744;2023-05-15T11:50:08;1.50;;;0.80;;
50301;SDS011;36550;50.472;19.744;2023-05-15T11:53:15;4.20;;;1.00;;
50301;SDS011;36550;50.472;19.744;2023-05-15T11:56:17;1.00;;;0.70;;
50301;SDS011;36550;50.472;19.744;2023-05-15T11:59:25;1.20;;;0.90;;
50301;SDS011;36550;50.472;19.744;2023-05-15T12:02:10;1.10;;;0.90;;
50301;SDS011;36550;50.472;19.744;2023-05-15T12:04:55;1.80;;;0.90;;
50301;SDS011;36550;50.472;19.744;2023-05-15T12:07:54;1.30;;;0.70;;
50301;SDS011;36550;50.472;19.744;2023-05-15T12:11:20;2.00;;;0.80;;
50301;SDS011;36550;50.472;19.744;2023-05-15T12:14:15;1.30;;;0.70;;
50301;SDS011;36550;50.472;19.744;2023-05-15T12:16:59;0.60;;;0.60;;
50301;SDS011;36550;50.472;19.744;2023-05-15T12:20:07;1.00;;;0.60;;
50301;SDS011;36550;50.472;19.744;2023-05-15T12:23:13;2.90;;;0.60;;
50301;SDS011;36550;50.472;19.744;2023-05-15T12:26:25;1.20;;;0.50;;
50301;SDS011;36550;50.472;19.744;2023-05-15T12:29:30;0.90;;;0.70;;
50301;SDS011;36550;50.472;19.744;2023-05-15T12:32:19;0.90;;;0.70;;
50301;SDS011;36550;50.472;19.744;2023-05-15T12:35:04;2.50;;;0.60;;
50301;SDS011;36550;50.472;19.744;2023-05-15T12:38:25;1.00;;;0.60;;
50301;SDS011;36550;50.472;19.744;2023-05-15T12:41:12;1.10;;;0.80;;
50301;SDS011;36550;50.472;19.744;2023-05-15T12:43:57;1.90;;;0.50;;
50301;SDS011;36550;50.472;19.744;2023-05-15T12:47:01;0.70;;;0.60;;
50301;SDS011;36550;50.472;19.744;2023-05-15T12:49:47;0.80;;;0.60;;
50301;SDS011;36550;50.472;19.744;2023-05-15T12:52:32;2.20;;;0.70;;
50301;SDS011;36550;50.472;19.744;2023-05-15T12:55:27;0.90;;;0.60;;
50301;SDS011;36550;50.472;19.744;2023-05-15T12:58:34;0.70;;;0.60;;
50301;SDS011;36550;50.472;19.744;2023-05-15T13:01:18;2.20;;;0.60;;
50301;SDS011;36550;50.472;19.744;2023-05-15T13:04:04;1.40;;;0.60;;
50301;SDS011;36550;50.472;19.744;2023-05-15T13:07:08;0.70;;;0.50;;
50301;SDS011;36550;50.472;19.744;2023-05-15T13:10:03;1.40;;;0.70;;
50301;SDS011;36550;50.472;19.744;2023-05-15T13:12:53;0.80;;;0.70;;
50301;SDS011;36550;50.472;19.744;2023-05-15T13:15:41;6.10;;;0.70;;
50301;SDS011;36550;50.472;19.744;2023-05-15T13:18:26;4.20;;;0.80;;
50301;SDS011;36550;50.472;19.744;2023-05-15T13:21:24;1.00;;;0.70;;
50301;SDS011;36550;50.472;19.744;2023-05-15T13:24:09;0.90;;;0.60;;
50301;SDS011;36550;50.472;19.744;2023-05-15T13:27:00;1.00;;;0.70;;
50301;SDS011;36550;50.472;19.744;2023-05-15T13:30:04;1.40;;;1.00;;
50301;SDS011;36550;50.472;19.744;2023-05-15T13:33:10;6.80;;;4.40;;
50301;SDS011;36550;50.472;19.744;2023-05-15T13:36:33;1.60;;;1.00;;
50301;SDS011;36550;50.472;19.744;2023-05-15T13:39:37;2.80;;;1.10;;
50301;SDS011;36550;50.472;19.744;2023-05-15T13:42:21;1.60;;;1.20;;
50301;SDS011;36550;50.472;19.744;2023-05-15T13:45:25;3.80;;;1.10;;
50301;SDS011;36550;50.472;19.744;2023-05-15T13:48:49;2.20;;;1.30;;
50301;SDS011;36550;50.472;19.744;2023-05-15T13:51:53;3.20;;;1.40;;
50301;SDS011;36550;50.472;19.744;2023-05-15T13:54:58;2.10;;;1.20;;
50301;SDS011;36550;50.472;19.744;2023-05-15T13:58:22;5.10;;;1.30;;
50301;SDS011;36550;50.472;19.744;2023-05-15T14:01:33;3.10;;;1.40;;
50301;SDS011;36550;50.472;19.744;2023-05-15T14:07:26;4.80;;;1.50;;
50301;SDS011;36550;50.472;19.744;2023-05-15T14:10:31;7.90;;;5.40;;
50301;SDS011;36550;50.472;19.744;2023-05-15T14:13:21;4.10;;;1.60;;
50301;SDS011;36550;50.472;19.744;2023-05-15T14:16:25;3.60;;;1.40;;
50301;SDS011;36550;50.472;19.744;2023-05-15T14:19:11;2.70;;;1.70;;
50301;SDS011;36550;50.472;19.744;2023-05-15T14:21:54;4.30;;;1.30;;
50301;SDS011;36550;50.472;19.744;2023-05-15T14:24:39;2.10;;;1.20;;
50301;SDS011;36550;50.472;19.744;2023-05-15T14:27:51;2.50;;;1.40;;
50301;SDS011;36550;50.472;19.744;2023-05-15T14:30:42;1.80;;;1.40;;
50301;SDS011;36550;50.472;19.744;2023-05-15T14:33:42;1.40;;;1.20;;
50301;SDS011;36550;50.472;19.744;2023-05-15T14:36:26;3.20;;;1.40;;
50301;SDS011;36550;50.472;19.744;2023-05-15T14:39:32;1.70;;;1.10;;
50301;SDS011;36550;50.472;19.744;2023-05-15T14:42:20;2.70;;;1.20;;
50301;SDS011;36550;50.472;19.744;2023-05-15T14:45:23;2.40;;;1.00;;
50301;SDS011;36550;50.472;19.744;2023-05-15T14:48:08;3.80;;;1.10;;
50301;SDS011;36550;50.472;19.744;2023-05-15T14:51:06;1.40;;;1.00;;
50301;SDS011;36550;50.472;19.744;2023-05-15T14:53:51;1.80;;;1.20;;
50301;SDS011;36550;50.472;19.744;2023-05-15T14:56:35;2.20;;;1.30;;
50301;SDS011;36550;50.472;19.744;2023-05-15T14:59:19;1.30;;;1.20;;
50301;SDS011;36550;50.472;19.744;2023-05-15T15:02:04;1.70;;;1.30;;
50301;SDS011;36550;50.472;19.744;2023-05-15T15:04:49;3.90;;;1.30;;
50301;SDS011;36550;50.472;19.744;2023-05-15T15:07:57;1.60;;;1.20;;
50301;SDS011;36550;50.472;19.744;2023-05-15T15:10:41;2.70;;;1.30;;
50301;SDS011;36550;50.472;19.744;2023-05-15T15:13:28;1.70;;;1.30;;
50301;SDS011;36550;50.472;19.744;2023-05-15T15:16:27;1.70;;;1.30;;
50301;SDS011;36550;50.472;19.744;2023-05-15T15:19:32;1.80;;;1.50;;
50301;SDS011;36550;50.472;19.744;2023-05-15T15:22:38;3.00;;;1.50;;
50301;SDS011;36550;50.472;19.744;2023-05-15T15:25:30;2.60;;;1.40;;
50301;SDS011;36550;50.472;19.744;2023-05-15T15:28:15;2.30;;;1.30;;
50301;SDS011;36550;50.472;19.744;2023-05-15T15:31:02;3.90;;;1.50;;
50301;SDS011;36550;50.472;19.744;2023-05-15T15:34:07;3.50;;;1.60;;
50301;SDS011;36550;50.472;19.744;2023-05-15T15:36:53;2.50;;;1.80;;
50301;SDS011;36550;50.472;19.744;2023-05-15T15:40:06;2.00;;;1.60;;
50301;SDS011;36550;50.472;19.744;2023-05-15T15:43:26;1.90;;;1.60;;
50301;SDS011;36550;50.472;19.744;2023-05-15T15:46:15;3.80;;;1.30;;
50301;SDS011;36550;50.472;19.744;2023-05-15T15:48:59;2.50;;;1.50;;
50301;SDS011;36550;50.472;19.744;2023-05-15T15:52:07;2.30;;;1.70;;
50301;SDS011;36550;50.472;19.744;2023-05-15T15:55:27;4.90;;;1.90;;
50301;SDS011;36550;50.472;19.744;2023-05-15T15:58:15;4.20;;;1.50;;
50301;SDS011;36550;50.472;19.744;2023-05-15T16:04:56;3.70;;;1.40;;
50301;SDS011;36550;50.472;19.744;2023-05-15T16:07:43;3.30;;;1.40;;
50301;SDS011;36550;50.472;19.744;2023-05-15T16:14:03;2.10;;;1.50;;
50301;SDS011;36550;50.472;19.744;2023-05-15T16:16:51;2.30;;;1.60;;
50301;SDS011;36550;50.472;19.744;2023-05-15T16:20:35;3.80;;;1.50;;
50301;SDS011;36550;50.472;19.744;2023-05-15T16:23:39;3.20;;;1.30;;
50301;SDS011;36550;50.472;19.744;2023-05-15T16:26:31;2.50;;;1.60;;
50301;SDS011;36550;50.472;19.744;2023-05-15T16:29:18;2.40;;;1.50;;
50301;SDS011;36550;50.472;19.744;2023-05-15T16:32:55;2.20;;;1.50;;
50301;SDS011;36550;50.472;19.744;2023-05-15T16:35:39;3.60;;;1.50;;
50301;SDS011;36550;50.472;19.744;2023-05-15T16:38:23;3.80;;;1.60;;
50301;SDS011;36550;50.472;19.744;2023-05-15T16:42:07;3.40;;;1.50;;
50301;SDS011;36550;50.472;19.744;2023-05-15T16:45:12;2.50;;;1.60;;
50301;SDS011;36550;50.472;19.744;2023-05-15T16:47:56;4.60;;;1.50;;
50301;SDS011;36550;50.472;19.744;2023-05-15T16:51:01;3.90;;;1.60;;
50301;SDS011;36550;50.472;19.744;2023-05-15T16:54:39;3.00;;;1.40;;
50301;SDS011;36550;50.472;19.744;2023-05-15T16:57:28;3.10;;;1.50;;
50301;SDS011;36550;50.472;19.744;2023-05-15T17:00:51;6.90;;;1.50;;
50301;SDS011;36550;50.472;19.744;2023-05-15T17:03:35;2.70;;;1.00;;
50301;SDS011;36550;50.472;19.744;2023-05-15T17:06:59;6.00;;;1.30;;
50301;SDS011;36550;50.472;19.744;2023-05-15T17:10:08;2.70;;;1.30;;
50301;SDS011;36550;50.472;19.744;2023-05-15T17:13:11;4.70;;;1.50;;
50301;SDS011;36550;50.472;19.744;2023-05-15T17:16:20;3.70;;;1.40;;
50301;SDS011;36550;50.472;19.744;2023-05-15T17:19:25;2.00;;;1.20;;
50301;SDS011;36550;50.472;19.744;2023-05-15T17:22:36;1.80;;;1.00;;
50301;SDS011;36550;50.472;19.744;2023-05-15T17:25:40;1.10;;;0.70;;
50301;SDS011;36550;50.472;19.744;2023-05-15T17:29:05;1.30;;;0.80;;
50301;SDS011;36550;50.472;19.744;2023-05-15T17:32:09;4.10;;;0.90;;
50301;SDS011;36550;50.472;19.744;2023-05-15T17:35:13;4.90;;;0.80;;
50301;SDS011;36550;50.472;19.744;2023-05-15T17:38:37;2.60;;;0.70;;
50301;SDS011;36550;50.472;19.744;2023-05-15T17:42:01;3.50;;;1.00;;
50301;SDS011;36550;50.472;19.744;2023-05-15T17:44:53;3.30;;;0.90;;
50301;SDS011;36550;50.472;19.744;2023-05-15T17:47:41;1.70;;;0.70;;
50301;SDS011;36550;50.472;19.744;2023-05-15T17:51:05;1.90;;;0.70;;
50301;SDS011;36550;50.472;19.744;2023-05-15T17:53:53;1.40;;;0.80;;
50301;SDS011;36550;50.472;19.744;2023-05-15T17:57:17;2.50;;;0.80;;
50301;SDS011;36550;50.472;19.744;2023-05-15T18:00:19;3.20;;;0.80;;
50301;SDS011;36550;50.472;19.744;2023-05-15T18:03:23;2.80;;;0.80;;
50301;SDS011;36550;50.472;19.744;2023-05-15T18:06:07;1.50;;;0.80;;
50301;SDS011;36550;50.472;19.744;2023-05-15T18:09:31;1.90;;;0.90;;
50301;SDS011;36550;50.472;19.744;2023-05-15T18:12:29;2.70;;;0.90;;
50301;SDS011;36550;50.472;19.744;2023-05-15T18:15:30;1.50;;;1.10;;
50301;SDS011;36550;50.472;19.744;2023-05-15T18:18:34;1.70;;;0.90;;
50301;SDS011;36550;50.472;19.744;2023-05-15T18:21:22;2.50;;;0.90;;
50301;SDS011;36550;50.472;19.744;2023-05-15T18:24:46;1.70;;;0.80;;
50301;SDS011;36550;50.472;19.744;2023-05-15T18:27:45;1.50;;;0.80;;
50301;SDS011;36550;50.472;19.744;2023-05-15T18:31:09;4.10;;;1.10;;
50301;SDS011;36550;50.472;19.744;2023-05-15T18:33:52;1.80;;;1.00;;
50301;SDS011;36550;50.472;19.744;2023-05-15T18:37:24;6.10;;;1.30;;
50301;SDS011;36550;50.472;19.744;2023-05-15T18:40:51;2.70;;;1.30;;
50301;SDS011;36550;50.472;19.744;2023-05-15T18:43:57;3.80;;;1.70;;
50301;SDS011;36550;50.472;19.744;2023-05-15T18:46:55;3.50;;;1.30;;
50301;SDS011;36550;50.472;19.744;2023-05-15T18:50:39;2.20;;;1.20;;
50301;SDS011;36550;50.472;19.744;2023-05-15T18:53:38;4.20;;;1.20;;
50301;SDS011;36550;50.472;19.744;2023-05-15T18:57:02;5.70;;;1.20;;
50301;SDS011;36550;50.472;19.744;2023-05-15T19:00:46;3.70;;;1.10;;
50301;SDS011;36550;50.472;19.744;2023-05-15T19:03:34;2.80;;;1.10;;
50301;SDS011;36550;50.472;19.744;2023-05-15T19:06:38;1.50;;;0.90;;